createdAt,value
2023-05-11T00:02:10.592Z,20.70
2023-05-11T00:04:38.980Z,20.57
2023-05-11T00:07:07.250Z,20.62
2023-05-11T00:09:38.494Z,20.42
2023-05-11T00:12:07.783Z,20.06
2023-05-11T00:14:36.086Z,19.93
2023-05-11T00:17:04.412Z,20.84
2023-05-11T00:19:33.041Z,20.93
2023-05-11T00:22:01.823Z,20.89
2023-05-11T00:24:30.338Z,20.59
2023-05-11T00:26:59.986Z,21.12
2023-05-11T00:29:28.250Z,21.01
2023-05-11T00:31:56.613Z,21.66
2023-05-11T00:34:25.149Z,22.03
2023-05-11T00:36:53.451Z,21.22
2023-05-11T00:39:21.709Z,21.36
2023-05-11T00:41:50.053Z,20.86
2023-05-11T00:44:19.641Z,22.05
2023-05-11T00:46:47.979Z,21.59
2023-05-11T00:49:17.368Z,22.15
2023-05-11T00:51:45.750Z,22.16
2023-05-11T00:54:15.713Z,21.68
2023-05-11T00:56:43.942Z,21.61
2023-05-11T00:59:13.613Z,20.58
2023-05-11T01:01:43.337Z,21.59
2023-05-11T01:04:11.794Z,21.20
2023-05-11T01:06:46.757Z,20.95
2023-05-11T01:09:25.679Z,20.82
2023-05-11T01:11:59.558Z,21.59
2023-05-11T01:14:31.307Z,20.94
2023-05-11T01:17:05.172Z,21.21
2023-05-11T01:19:42.313Z,21.15
2023-05-11T01:22:19.897Z,21.48
2023-05-11T01:24:59.764Z,21.51
2023-05-11T01:27:45.262Z,22.41
2023-05-11T01:30:27.389Z,21.80
2023-05-11T01:32:56.635Z,21.49
2023-05-11T01:35:26.520Z,21.21
2023-05-11T01:37:58.660Z,21.66
2023-05-11T01:40:29.877Z,21.27
2023-05-11T01:43:02.437Z,22.27
2023-05-11T01:45:35.823Z,20.55
2023-05-11T01:48:06.743Z,21.82
2023-05-11T01:50:36.092Z,21.83
2023-05-11T01:53:04.684Z,21.93
2023-05-11T01:55:35.929Z,21.88
2023-05-11T01:58:05.418Z,21.72
2023-05-11T02:00:35.946Z,21.89
2023-05-11T02:03:07.156Z,21.42
2023-05-11T02:05:36.091Z,21.40
2023-05-11T02:08:05.858Z,21.97
2023-05-11T02:10:35.504Z,22.16
2023-05-11T02:13:05.324Z,22.42
2023-05-11T02:15:36.761Z,21.86
2023-05-11T02:18:06.351Z,22.14
2023-05-11T02:20:34.814Z,21.93
2023-05-11T02:23:03.819Z,21.43
2023-05-11T02:25:32.802Z,21.69
2023-05-11T02:28:01.294Z,21.03
2023-05-11T02:30:30.818Z,20.90
2023-05-11T02:33:07.034Z,21.72
2023-05-11T02:35:39.481Z,21.59
2023-05-11T02:38:08.416Z,21.94
2023-05-11T02:40:41.022Z,21.79
2023-05-11T02:43:10.748Z,22.12
2023-05-11T02:45:40.395Z,21.27
2023-05-11T02:48:14.141Z,21.86
2023-05-11T02:50:43.347Z,22.03
2023-05-11T02:53:15.904Z,21.68
2023-05-11T02:55:44.212Z,21.79
2023-05-11T02:58:12.536Z,21.29
2023-05-11T03:00:41.008Z,20.60
2023-05-11T03:03:10.766Z,20.56
2023-05-11T03:05:39.088Z,19.47
2023-05-11T03:08:07.452Z,20.10
2023-05-11T03:10:36.271Z,20.70
2023-05-11T03:13:04.762Z,19.24
2023-05-11T03:15:33.558Z,18.56
2023-05-11T03:18:02.137Z,19.77
2023-05-11T03:20:33.076Z,19.97
2023-05-11T03:23:01.871Z,19.82
2023-05-11T03:25:30.500Z,19.83
2023-05-11T03:27:59.555Z,19.40
2023-05-11T03:30:29.429Z,20.71
2023-05-11T03:32:57.754Z,19.03
2023-05-11T03:35:28.486Z,20.00
2023-05-11T03:37:57.925Z,20.79
2023-05-11T03:40:27.882Z,19.41
2023-05-11T03:42:56.724Z,20.49
2023-05-11T03:45:26.348Z,20.27
2023-05-11T03:47:55.276Z,20.06
2023-05-11T03:50:23.921Z,19.64
2023-05-11T03:52:52.412Z,19.10
2023-05-11T03:55:22.900Z,19.87
2023-05-11T03:57:51.751Z,19.75
2023-05-11T04:00:20.476Z,19.64
2023-05-11T04:02:48.970Z,19.68
2023-05-11T04:05:18.469Z,19.19
2023-05-11T04:07:46.794Z,19.57
2023-05-11T04:10:15.085Z,20.12
2023-05-11T04:12:44.775Z,20.88
2023-05-11T04:15:13.148Z,20.58
2023-05-11T04:17:41.413Z,20.15
2023-05-11T04:20:10.293Z,20.72
2023-05-11T04:22:38.650Z,19.45
2023-05-11T04:25:07.743Z,19.84
2023-05-11T04:27:36.159Z,20.28
2023-05-11T04:30:07.083Z,19.66
2023-05-11T04:32:35.411Z,20.12
2023-05-11T04:35:04.018Z,19.92
2023-05-11T04:37:45.095Z,20.10
2023-05-11T04:40:28.633Z,20.82
2023-05-11T04:42:58.482Z,20.41
2023-05-11T04:45:29.322Z,20.67
2023-05-11T04:47:59.433Z,20.77
2023-05-11T04:50:28.864Z,21.08
2023-05-11T04:52:57.167Z,19.67
2023-05-11T04:55:25.496Z,20.20
2023-05-11T04:57:53.817Z,21.05
2023-05-11T05:00:22.931Z,20.69
2023-05-11T05:02:52.756Z,21.60
2023-05-11T05:05:21.200Z,20.48
2023-05-11T05:07:49.482Z,21.26
2023-05-11T05:10:17.898Z,21.77
2023-05-11T05:12:46.811Z,20.78
2023-05-11T05:15:15.788Z,20.85
2023-05-11T05:17:44.276Z,22.39
2023-05-11T05:20:14.092Z,21.10
2023-05-11T05:22:42.716Z,21.33
2023-05-11T05:25:12.125Z,20.50
2023-05-11T05:27:40.393Z,20.63
2023-05-11T05:30:09.480Z,21.08
2023-05-11T05:32:37.767Z,21.30
2023-05-11T05:35:06.960Z,21.80
2023-05-11T05:37:37.550Z,21.36
2023-05-11T05:40:06.130Z,23.36
2023-05-11T05:42:34.355Z,20.45
2023-05-11T05:45:02.592Z,20.78
2023-05-11T05:47:30.871Z,21.12
2023-05-11T05:49:59.162Z,21.21
2023-05-11T05:52:27.388Z,21.89
2023-05-11T05:54:57.631Z,21.83
2023-05-11T05:57:26.602Z,19.51
2023-05-11T05:59:55.181Z,19.87
2023-05-11T06:02:23.659Z,21.22
2023-05-11T06:04:51.997Z,21.26
2023-05-11T06:07:20.348Z,20.60
2023-05-11T06:09:48.639Z,20.73
2023-05-11T06:12:18.364Z,21.39
2023-05-11T06:14:46.711Z,20.44
2023-05-11T06:17:15.012Z,20.68
2023-05-11T06:19:43.636Z,19.70
2023-05-11T06:22:12.082Z,20.07
2023-05-11T06:24:40.356Z,20.29
2023-05-11T06:27:08.675Z,19.65
2023-05-11T06:29:38.665Z,21.51
2023-05-11T06:32:07.487Z,21.62
2023-05-11T06:34:35.938Z,20.30
2023-05-11T06:37:04.274Z,20.57
2023-05-11T06:39:32.659Z,19.69
2023-05-11T06:42:03.568Z,21.11
2023-05-11T06:47:21.362Z,20.38
2023-05-11T06:49:49.704Z,20.21
2023-05-11T06:52:18.081Z,21.17
2023-05-11T06:54:46.376Z,20.33
2023-05-11T06:57:14.812Z,20.52
2023-05-11T06:59:44.095Z,20.77
2023-05-11T07:02:12.494Z,21.82
2023-05-11T07:04:42.267Z,22.01
2023-05-11T07:07:11.368Z,21.86
2023-05-11T07:09:40.758Z,21.10
2023-05-11T07:12:10.368Z,21.63
2023-05-11T07:14:38.657Z,20.05
2023-05-11T07:17:07.494Z,21.18
2023-05-11T07:19:35.876Z,21.36
2023-05-11T07:22:05.879Z,21.29
2023-05-11T07:24:34.257Z,20.50
2023-05-11T07:27:02.532Z,19.96
2023-05-11T07:29:30.851Z,21.68
2023-05-11T07:31:59.199Z,21.16
2023-05-11T07:34:27.638Z,21.86
2023-05-11T07:36:56.006Z,20.90
2023-05-11T07:39:25.578Z,21.89
2023-05-11T07:41:53.950Z,20.66
2023-05-11T07:44:22.350Z,20.88
2023-05-11T07:46:50.717Z,20.97
2023-05-11T07:49:25.459Z,22.07
2023-05-11T07:52:03.694Z,20.76
2023-05-11T07:54:33.410Z,22.13
2023-05-11T07:57:02.274Z,20.06
2023-05-11T07:59:30.543Z,21.35
2023-05-11T08:01:58.901Z,21.40
2023-05-11T08:04:28.475Z,21.69
2023-05-11T08:09:18.782Z,22.00
2023-05-11T08:11:47.037Z,23.07
2023-05-11T08:14:15.786Z,22.80
2023-05-11T08:16:44.483Z,22.32
2023-05-11T08:19:14.101Z,21.47
2023-05-11T08:21:42.521Z,21.39
2023-05-11T08:24:10.953Z,21.66
2023-05-11T08:26:40.568Z,21.06
2023-05-11T08:29:08.850Z,22.15
2023-05-11T08:31:37.132Z,21.93
2023-05-11T08:34:13.812Z,22.10
2023-05-11T08:36:46.839Z,21.68
2023-05-11T08:39:32.881Z,21.54
2023-05-11T08:42:07.995Z,21.97
2023-05-11T08:44:38.132Z,20.41
2023-05-11T08:47:21.799Z,21.66
2023-05-11T08:49:52.485Z,22.36
2023-05-11T08:52:20.879Z,22.70
2023-05-11T08:54:49.280Z,22.05
2023-05-11T08:57:19.126Z,21.29
2023-05-11T08:59:47.799Z,22.25
2023-05-11T09:02:18.732Z,22.59
2023-05-11T09:04:48.896Z,22.63
2023-05-11T09:07:18.414Z,22.86
2023-05-11T09:09:47.230Z,23.21
2023-05-11T09:12:16.053Z,23.45
2023-05-11T09:14:47.122Z,22.90
2023-05-11T09:17:15.525Z,24.15
2023-05-11T09:20:00.954Z,24.77
2023-05-11T09:22:31.447Z,24.02
2023-05-11T09:25:01.755Z,24.51
2023-05-11T09:27:30.122Z,24.37
2023-05-11T09:30:11.349Z,23.62
2023-05-11T09:32:48.631Z,22.83
2023-05-11T09:35:21.584Z,24.55
2023-05-11T09:38:01.119Z,24.56
2023-05-11T09:40:34.304Z,23.01
2023-05-11T09:43:03.879Z,22.09
2023-05-11T09:45:44.026Z,22.95
2023-05-11T09:48:25.111Z,22.75
2023-05-11T09:51:00.420Z,22.82
2023-05-11T09:53:43.570Z,23.45
2023-05-11T09:56:12.394Z,22.92
2023-05-11T09:58:48.454Z,23.03
2023-05-11T10:01:18.836Z,23.81
2023-05-11T10:03:49.030Z,23.69
2023-05-11T10:06:20.024Z,23.51
2023-05-11T10:08:49.197Z,22.78
2023-05-11T10:11:17.632Z,23.62
2023-05-11T10:13:46.629Z,23.84
2023-05-11T10:16:19.911Z,23.45
2023-05-11T10:18:48.986Z,23.75
2023-05-11T10:21:17.930Z,23.54
2023-05-11T10:23:46.440Z,23.45
2023-05-11T10:26:15.408Z,24.37
2023-05-11T10:28:44.014Z,23.85
2023-05-11T10:31:12.476Z,23.36
2023-05-11T10:33:43.125Z,22.86
2023-05-11T10:36:19.117Z,22.65
2023-05-11T10:38:48.055Z,22.98
2023-05-11T10:41:26.676Z,23.55
2023-05-11T10:44:21.074Z,23.63
2023-05-11T10:47:02.866Z,22.38
2023-05-11T10:49:49.905Z,24.23
2023-05-11T10:52:37.268Z,23.84
2023-05-11T10:55:11.798Z,24.56
2023-05-11T10:57:56.434Z,24.40
2023-05-11T11:01:04.163Z,24.84
2023-05-11T11:03:32.707Z,23.82
2023-05-11T11:06:02.386Z,25.16
2023-05-11T11:08:30.779Z,25.27
2023-05-11T11:10:59.063Z,24.05
2023-05-11T11:13:27.400Z,25.25
2023-05-11T11:16:16.654Z,24.79
2023-05-11T11:18:45.575Z,24.44
2023-05-11T11:21:41.352Z,24.61
2023-05-11T11:24:09.646Z,23.74
2023-05-11T11:26:48.756Z,24.25
2023-05-11T11:29:17.086Z,23.74
2023-05-11T11:31:45.438Z,24.82
2023-05-11T11:34:36.713Z,24.62
2023-05-11T11:37:08.717Z,24.02
2023-05-11T11:40:05.990Z,24.47
2023-05-11T11:42:44.217Z,23.81
2023-05-11T11:45:50.654Z,25.47
2023-05-11T11:48:23.003Z,23.52
2023-05-11T11:51:02.664Z,24.52
2023-05-11T11:54:04.117Z,23.16
2023-05-11T11:56:41.502Z,24.12
2023-05-11T11:59:13.860Z,22.98
2023-05-11T12:01:44.597Z,23.36
2023-05-11T12:04:40.725Z,23.51
2023-05-11T12:07:11.393Z,22.57
2023-05-11T12:09:41.097Z,23.45
2023-05-11T12:12:12.046Z,24.21
2023-05-11T12:14:42.091Z,23.72
2023-05-11T12:17:15.818Z,23.58
2023-05-11T12:19:45.674Z,22.87
2023-05-11T12:22:16.443Z,22.15
2023-05-11T12:24:45.042Z,21.99
2023-05-11T12:27:14.998Z,22.68
2023-05-11T12:29:45.986Z,23.08
2023-05-11T12:32:14.989Z,23.82
2023-05-11T12:34:43.340Z,24.33
2023-05-11T12:37:11.603Z,23.66
2023-05-11T12:39:41.120Z,23.52
2023-05-11T12:42:09.937Z,23.58
2023-05-11T12:44:41.539Z,23.78
2023-05-11T12:47:14.584Z,23.50
2023-05-11T12:49:43.541Z,23.05
2023-05-11T12:52:14.850Z,23.36
2023-05-11T12:54:51.285Z,24.05
2023-05-11T12:57:29.531Z,24.90
2023-05-11T13:00:11.523Z,24.41
2023-05-11T13:02:50.029Z,24.91
2023-05-11T13:05:20.597Z,24.00
2023-05-11T13:07:49.581Z,24.73
2023-05-11T13:10:17.819Z,24.95
2023-05-11T13:12:49.604Z,24.46
2023-05-11T13:15:20.642Z,23.51
2023-05-11T13:17:55.164Z,24.29
2023-05-11T13:20:29.531Z,24.47
2023-05-11T13:23:08.805Z,24.35
2023-05-11T13:25:55.690Z,25.78
2023-05-11T13:28:25.248Z,24.27
2023-05-11T13:31:00.420Z,24.08
2023-05-11T13:33:29.059Z,24.69
2023-05-11T13:35:57.393Z,25.38
2023-05-11T13:38:26.106Z,25.21
2023-05-11T13:40:54.447Z,25.48
2023-05-11T13:43:23.610Z,26.53
2023-05-11T13:45:52.125Z,26.20
2023-05-11T13:48:21.921Z,26.14
2023-05-11T13:50:50.307Z,26.65
2023-05-11T13:53:19.046Z,27.01
2023-05-11T13:55:48.329Z,26.42
2023-05-11T13:58:17.877Z,26.10
2023-05-11T14:00:56.432Z,26.77
2023-05-11T14:03:34.340Z,26.66
2023-05-11T14:06:02.671Z,26.20
2023-05-11T14:08:31.317Z,26.74
2023-05-11T14:11:00.669Z,27.27
2023-05-11T14:13:29.084Z,27.12
2023-05-11T14:15:58.187Z,26.03
2023-05-11T14:18:26.640Z,24.26
2023-05-11T14:20:56.897Z,23.83
2023-05-11T14:23:25.123Z,22.94
2023-05-11T14:25:53.341Z,22.48
2023-05-11T14:28:21.937Z,22.11
2023-05-11T14:30:50.232Z,21.59
2023-05-11T14:33:18.523Z,22.18
2023-05-11T14:35:48.747Z,21.96
2023-05-11T14:38:18.448Z,22.72
2023-05-11T14:40:47.167Z,22.51
2023-05-11T14:43:15.415Z,23.05
2023-05-11T14:45:43.657Z,22.97
2023-05-11T14:48:11.919Z,23.66
2023-05-11T14:50:40.466Z,23.52
2023-05-11T14:53:08.696Z,24.73
2023-05-11T14:55:38.980Z,25.00
2023-05-11T14:58:09.225Z,24.54
2023-05-11T15:00:40.265Z,24.04
2023-05-11T15:03:10.580Z,25.18
2023-05-11T15:05:39.177Z,25.80
2023-05-11T15:08:18.361Z,25.24
2023-05-11T15:10:55.850Z,25.99
2023-05-11T15:13:24.375Z,25.24
2023-05-11T15:15:52.755Z,26.09
2023-05-11T15:18:21.177Z,25.83
2023-05-11T15:20:49.609Z,25.58
2023-05-11T15:23:18.000Z,25.80
2023-05-11T15:25:46.385Z,25.78
2023-05-11T15:28:16.303Z,25.89
2023-05-11T15:30:44.542Z,26.09
2023-05-11T15:33:12.829Z,25.00
2023-05-11T15:35:41.181Z,25.43
2023-05-11T15:38:09.539Z,25.48
2023-05-11T15:40:37.939Z,25.80
2023-05-11T15:43:06.199Z,26.17
2023-05-11T15:45:36.222Z,24.97
2023-05-11T15:48:04.928Z,26.39
2023-05-11T15:50:33.316Z,25.55
2023-05-11T15:53:02.102Z,26.27
2023-05-11T15:55:30.401Z,25.77
2023-05-11T15:57:58.693Z,26.34
2023-05-11T16:00:27.282Z,26.10
2023-05-11T16:02:57.010Z,26.53
2023-05-11T16:05:25.365Z,26.22
2023-05-11T16:07:53.675Z,25.78
2023-05-11T16:10:22.233Z,26.31
2023-05-11T16:12:50.581Z,26.25
2023-05-11T16:15:18.802Z,26.24
2023-05-11T16:17:47.520Z,25.49
2023-05-11T16:20:17.223Z,25.79
2023-05-11T16:22:47.507Z,24.36
2023-05-11T16:25:16.123Z,25.20
2023-05-11T16:27:44.415Z,25.33
2023-05-11T16:30:23.157Z,25.02
2023-05-11T16:32:54.163Z,24.74
2023-05-11T16:35:23.929Z,24.33
2023-05-11T16:37:52.541Z,23.37
2023-05-11T16:40:21.528Z,23.65
2023-05-11T16:42:50.142Z,23.36
2023-05-11T16:45:18.417Z,23.84
2023-05-11T16:47:46.765Z,23.27
2023-05-11T16:50:16.120Z,23.99
2023-05-11T16:52:46.128Z,24.79
2023-05-11T16:55:20.457Z,23.34
2023-05-11T16:57:52.835Z,24.06
2023-05-11T17:00:21.724Z,24.68
2023-05-11T17:02:50.377Z,24.44
2023-05-11T17:05:19.004Z,24.29
2023-05-11T17:07:48.785Z,24.55
2023-05-11T17:10:18.952Z,24.16
2023-05-11T17:12:58.555Z,25.08
2023-05-11T17:15:27.029Z,24.83
2023-05-11T17:18:01.506Z,25.52
2023-05-11T17:20:29.895Z,24.93
2023-05-11T17:23:00.964Z,24.44
2023-05-11T17:25:29.998Z,24.72
2023-05-11T17:27:58.281Z,24.69
2023-05-11T17:30:36.411Z,25.15
2023-05-11T17:33:15.052Z,24.45
2023-05-11T17:35:43.634Z,24.95
2023-05-11T17:38:13.278Z,25.35
2023-05-11T17:40:42.522Z,24.68
2023-05-11T17:43:11.525Z,24.84
2023-05-11T17:45:40.214Z,25.17
2023-05-11T17:48:08.691Z,25.34
2023-05-11T17:50:37.289Z,25.91
2023-05-11T17:53:06.126Z,25.83
2023-05-11T17:55:39.274Z,26.42
2023-05-11T17:58:07.637Z,26.23
2023-05-11T18:00:39.079Z,26.04
2023-05-11T18:03:09.347Z,26.40
2023-05-11T18:05:54.629Z,25.74
2023-05-11T18:08:23.222Z,25.13
2023-05-11T18:10:54.777Z,25.61
2023-05-11T18:13:23.638Z,26.36
2023-05-11T18:15:51.923Z,25.32
2023-05-11T18:18:20.734Z,25.88
2023-05-11T18:20:49.488Z,25.97
2023-05-11T18:23:17.819Z,26.10
2023-05-11T18:25:46.100Z,26.24
2023-05-11T18:28:15.671Z,26.60
2023-05-11T18:30:43.940Z,26.37
2023-05-11T18:33:12.212Z,26.17
2023-05-11T18:35:41.660Z,26.22
2023-05-11T18:38:09.928Z,26.05
2023-05-11T18:40:38.220Z,26.13
2023-05-11T18:43:06.706Z,25.76
2023-05-11T18:45:36.349Z,25.98
2023-05-11T18:48:05.138Z,25.46
2023-05-11T18:50:33.918Z,25.61
2023-05-11T18:53:02.272Z,25.96
2023-05-11T18:55:35.504Z,26.02
2023-05-11T18:58:09.504Z,26.07
2023-05-11T19:00:39.573Z,26.28
2023-05-11T19:03:08.196Z,25.99
2023-05-11T19:05:36.449Z,25.91
2023-05-11T19:08:04.967Z,25.85
2023-05-11T19:10:33.181Z,25.53
2023-05-11T19:13:01.397Z,25.83
2023-05-11T19:15:29.615Z,25.51
2023-05-11T19:17:59.215Z,25.68
2023-05-11T19:20:27.469Z,25.39
2023-05-11T19:22:55.706Z,25.32
2023-05-11T19:25:24.059Z,25.26
2023-05-11T19:27:52.303Z,25.40
2023-05-11T19:30:21.016Z,25.45
2023-05-11T19:32:49.418Z,25.43
2023-05-11T19:35:19.711Z,25.58
2023-05-11T19:37:48.464Z,25.01
2023-05-11T19:42:48.045Z,24.91
2023-05-11T19:45:16.276Z,24.80
2023-05-11T19:47:44.871Z,24.91
2023-05-11T19:50:14.693Z,24.79
2023-05-11T19:52:44.248Z,25.29
2023-05-11T19:55:12.487Z,24.93
2023-05-11T19:57:40.646Z,24.99
2023-05-11T20:00:09.746Z,25.14
2023-05-11T20:02:38.101Z,25.01
2023-05-11T20:05:07.830Z,25.39
2023-05-11T20:07:36.112Z,25.37
2023-05-11T20:10:06.680Z,25.87
2023-05-11T20:12:34.757Z,26.48
2023-05-11T20:15:03.092Z,25.52
2023-05-11T20:17:31.444Z,25.44
2023-05-11T20:19:59.758Z,25.21
2023-05-11T20:22:28.196Z,25.36
2023-05-11T20:24:56.735Z,25.44
2023-05-11T20:27:26.609Z,25.82
2023-05-11T20:29:56.125Z,25.62
2023-05-11T20:32:24.639Z,25.51
2023-05-11T20:34:53.046Z,25.72
2023-05-11T20:37:21.510Z,25.74
2023-05-11T20:39:49.822Z,25.57
2023-05-11T20:42:18.063Z,25.63
2023-05-11T20:44:49.850Z,25.99
2023-05-11T20:47:18.474Z,25.75
2023-05-11T20:49:47.722Z,25.84
2023-05-11T20:52:17.573Z,25.54
2023-05-11T20:54:48.114Z,25.25
2023-05-11T20:57:16.266Z,26.49
2023-05-11T21:02:17.270Z,25.23
2023-05-11T21:04:45.871Z,25.18
2023-05-11T21:07:14.093Z,24.90
2023-05-11T21:09:44.431Z,25.25
2023-05-11T21:12:12.701Z,25.41
2023-05-11T21:14:41.452Z,25.36
2023-05-11T21:17:09.791Z,25.29
2023-05-11T21:19:39.538Z,25.52
2023-05-11T21:22:07.851Z,25.50
2023-05-11T21:24:37.581Z,25.59
2023-05-11T21:27:06.080Z,25.75
2023-05-11T21:29:37.067Z,25.99
2023-05-11T21:34:55.935Z,26.00
2023-05-11T21:37:24.234Z,25.67
2023-05-11T21:39:53.042Z,25.03
2023-05-11T21:42:21.879Z,25.44
2023-05-11T21:44:50.278Z,25.51
2023-05-11T21:47:18.626Z,25.51
2023-05-11T21:49:46.999Z,25.14
2023-05-11T21:52:16.611Z,25.37
2023-05-11T21:54:44.876Z,24.25
2023-05-11T21:57:13.165Z,23.92
2023-05-11T21:59:41.382Z,22.78
2023-05-11T22:02:09.658Z,23.58
2023-05-11T22:04:38.002Z,24.46
2023-05-11T22:07:06.486Z,23.35
2023-05-11T22:09:36.268Z,24.35
2023-05-11T22:12:05.037Z,23.60
2023-05-11T22:14:33.411Z,23.48
2023-05-11T22:17:01.778Z,23.69
2023-05-11T22:19:30.154Z,23.70
2023-05-11T22:21:58.354Z,23.56
2023-05-11T22:24:27.235Z,23.87
2023-05-11T22:26:57.289Z,23.63
2023-05-11T22:29:25.540Z,23.45
2023-05-11T22:31:53.837Z,23.50
2023-05-11T22:34:22.219Z,23.53
2023-05-11T22:36:50.452Z,24.08
2023-05-11T22:39:18.868Z,23.28
2023-05-11T22:41:47.078Z,23.08
2023-05-11T22:44:17.737Z,23.39
2023-05-11T22:46:46.024Z,23.19
2023-05-11T22:49:14.299Z,23.01
2023-05-11T22:51:42.565Z,22.88
2023-05-11T22:54:11.011Z,23.10
2023-05-11T22:56:39.318Z,22.82
2023-05-11T22:59:07.885Z,22.96
2023-05-11T23:01:37.519Z,23.40
2023-05-11T23:04:05.868Z,23.48
2023-05-11T23:06:34.174Z,23.12
2023-05-11T23:09:02.844Z,23.49
2023-05-11T23:11:31.047Z,23.97
2023-05-11T23:13:59.559Z,24.34
2023-05-11T23:16:27.912Z,24.55
2023-05-11T23:18:57.606Z,25.00
2023-05-11T23:21:26.162Z,24.67
2023-05-11T23:23:54.551Z,24.83
2023-05-11T23:26:23.068Z,24.96
2023-05-11T23:28:51.622Z,24.65
2023-05-11T23:31:20.017Z,24.96
2023-05-11T23:33:48.326Z,24.66
2023-05-11T23:36:17.946Z,24.59
2023-05-11T23:38:46.430Z,24.81
2023-05-11T23:41:14.697Z,24.73
2023-05-11T23:43:42.962Z,24.48
2023-05-11T23:46:11.574Z,24.81
2023-05-11T23:48:40.165Z,24.45
2023-05-11T23:51:08.416Z,24.47
2023-05-11T23:53:38.125Z,25.38
2023-05-11T23:56:07.171Z,25.33
2023-05-11T23:58:35.464Z,24.99
